Time;durP1;ratioP1;P1;durP2;ratioP2;P2;SDS_P1;SDS_P2;PMS_P1;PMS_P2;Temp;Humidity;BMP_temperature;BMP_pressure;BME280_temperature;BME280_humidity;BME280_pressure;Samples;Min_cycle;Max_cycle;Signal;HPM_P1;HPM_P2
2022/05/12 00:00:24;;;;;;;15.15;9.13;;;14.40;99.90;;;;;;5075335;28;20028;-68
2022/05/12 00:02:50;;;;;;;20.02;9.73;;;14.40;99.90;;;;;;5074792;28;20091;-68
2022/05/12 00:05:16;;;;;;;20.08;9.07;;;14.40;99.90;;;;;;5075249;28;20566;-68
2022/05/12 00:07:43;;;;;;;18.52;9.38;;;14.40;99.90;;;;;;5075191;28;20388;-68
2022/05/12 00:10:10;;;;;;;19.20;9.55;;;14.40;99.90;;;;;;5074885;28;20024;-68
2022/05/12 00:12:37;;;;;;;18.92;9.93;;;14.40;99.90;;;;;;5075101;28;20383;-68
2022/05/12 00:15:07;;;;;;;23.90;8.75;;;14.40;99.90;;;;;;5074807;28;20032;-68
2022/05/12 00:17:32;;;;;;;16.02;7.53;;;14.30;99.90;;;;;;5074726;28;20073;-68
2022/05/12 00:19:58;;;;;;;18.17;7.35;;;14.30;99.90;;;;;;5074694;28;20025;-68
2022/05/12 00:22:23;;;;;;;14.75;6.65;;;14.40;99.90;;;;;;5074813;28;20025;-68
2022/05/12 00:24:49;;;;;;;11.45;6.80;;;14.40;99.90;;;;;;5073588;28;20024;-68
2022/05/12 00:27:15;;;;;;;15.48;5.38;;;14.40;99.90;;;;;;5074554;28;20475;-68
2022/05/12 00:29:40;;;;;;;11.85;5.68;;;14.30;99.90;;;;;;5073252;28;20471;-68
2022/05/12 00:32:06;;;;;;;12.07;5.90;;;14.40;99.90;;;;;;5074452;28;20034;-68
2022/05/12 00:34:32;;;;;;;13.68;6.30;;;14.40;99.90;;;;;;5074413;28;20017;-68
2022/05/12 00:36:57;;;;;;;7.65;5.80;;;14.30;99.90;;;;;;5074354;28;20099;-68
2022/05/12 00:39:23;;;;;;;9.00;5.38;;;14.30;99.90;;;;;;5074507;28;20016;-68
2022/05/12 00:41:48;;;;;;;9.15;4.97;;;14.20;99.90;;;;;;5074377;28;20079;-69
2022/05/12 00:44:16;;;;;;;12.75;5.10;;;14.20;99.90;;;;;;5074233;28;20066;-68
2022/05/12 00:46:43;;;;;;;7.60;4.88;;;14.20;99.90;;;;;;5074411;28;20052;-68
2022/05/12 00:49:20;;;;;;;12.85;4.80;;;14.10;99.90;;;;;;5074379;28;20017;-68
2022/05/12 00:51:49;;;;;;;6.95;4.20;;;14.10;99.90;;;;;;5074338;28;20051;-68
2022/05/12 00:54:21;;;;;;;9.65;4.72;;;14.10;99.90;;;;;;5074120;28;20028;-68
2022/05/12 00:56:49;;;;;;;11.10;4.90;;;14.10;99.90;;;;;;5074036;28;20460;-68
2022/05/12 00:59:20;;;;;;;9.38;4.80;;;14.10;99.90;;;;;;5074335;28;20077;-68
2022/05/12 01:01:46;;;;;;;10.68;4.35;;;14.10;99.90;;;;;;5073563;28;20097;-69
2022/05/12 01:04:12;;;;;;;9.35;4.50;;;14.00;99.90;;;;;;5073810;28;20111;-68
2022/05/12 01:06:37;;;;;;;8.50;4.38;;;13.90;99.90;;;;;;5073753;28;20103;-68
2022/05/12 01:09:03;;;;;;;9.25;4.55;;;13.90;99.90;;;;;;5074016;28;20047;-68
2022/05/12 01:11:29;;;;;;;11.25;4.68;;;13.80;99.90;;;;;;5073909;28;20108;-68
2022/05/12 01:14:00;;;;;;;7.63;4.13;;;13.80;99.90;;;;;;5073909;28;20044;-68
2022/05/12 01:19:24;;;;;;;8.95;4.10;;;13.60;99.90;;;;;;5111223;27;20347;-69
2022/05/12 01:21:50;;;;;;;8.38;4.68;;;13.60;99.90;;;;;;5111156;28;20524;-68
2022/05/12 01:24:17;;;;;;;9.20;4.40;;;13.50;99.90;;;;;;5111290;28;20466;-68
2022/05/12 01:26:43;;;;;;;7.63;4.50;;;13.50;99.90;;;;;;5111235;28;20031;-68
2022/05/12 01:29:09;;;;;;;8.30;4.38;;;13.40;99.90;;;;;;5109686;28;20393;-68
2022/05/12 01:31:36;;;;;;;12.73;5.53;;;13.40;99.90;;;;;;5110866;28;20393;-68
2022/05/12 01:34:04;;;;;;;8.48;5.80;;;13.30;99.90;;;;;;5111041;28;20034;-68
2022/05/12 01:36:30;;;;;;;11.38;5.50;;;13.30;99.90;;;;;;5110815;28;20125;-68
2022/05/12 01:38:55;;;;;;;9.38;5.13;;;13.20;99.90;;;;;;5109554;28;20501;-68
2022/05/12 01:41:21;;;;;;;9.75;5.85;;;13.10;99.90;;;;;;5109820;28;20458;-68
2022/05/12 01:43:47;;;;;;;12.15;5.85;;;13.10;99.90;;;;;;5110704;28;20016;-68
2022/05/12 01:46:12;;;;;;;8.77;5.55;;;13.00;99.90;;;;;;5111133;28;20020;-68
2022/05/12 01:48:38;;;;;;;9.75;6.22;;;12.90;99.90;;;;;;5110496;28;20070;-68
2022/05/12 01:51:05;;;;;;;10.55;6.07;;;12.80;99.90;;;;;;5110468;28;20111;-68
2022/05/12 01:53:30;;;;;;;8.55;6.28;;;12.80;99.90;;;;;;5110530;28;20020;-67
2022/05/12 01:55:57;;;;;;;9.35;6.07;;;12.70;99.90;;;;;;5110362;28;20393;-68
2022/05/12 01:58:23;;;;;;;11.50;5.95;;;12.70;99.90;;;;;;5110524;28;20477;-68
2022/05/12 02:00:49;;;;;;;16.45;7.05;;;12.60;99.90;;;;;;5110382;28;20024;-68
2022/05/12 02:03:15;;;;;;;14.10;6.82;;;12.60;99.90;;;;;;5110699;28;20051;-68
2022/05/12 02:05:41;;;;;;;11.05;5.93;;;12.60;99.90;;;;;;5110245;28;20028;-68
2022/05/12 02:08:09;;;;;;;9.80;6.32;;;12.50;99.90;;;;;;5110163;28;20028;-68
2022/05/12 02:10:38;;;;;;;10.90;5.93;;;12.50;99.90;;;;;;5110352;28;20032;-68
2022/05/12 02:13:06;;;;;;;12.93;6.20;;;12.40;99.90;;;;;;5110026;28;20043;-68
2022/05/12 02:15:31;;;;;;;11.70;6.03;;;12.40;99.90;;;;;;5110057;28;20032;-67
2022/05/12 02:17:57;;;;;;;8.73;5.20;;;12.40;99.90;;;;;;5109702;28;20048;-68
2022/05/12 02:20:23;;;;;;;8.68;4.97;;;12.30;99.90;;;;;;5110033;28;20460;-68
2022/05/12 02:22:49;;;;;;;10.52;5.05;;;12.30;99.90;;;;;;5110161;28;20085;-68
2022/05/12 02:25:15;;;;;;;10.18;4.40;;;12.30;99.90;;;;;;5109900;28;20020;-68
2022/05/12 02:27:45;;;;;;;7.95;3.90;;;12.20;99.90;;;;;;5110062;28;20486;-68
2022/05/12 02:30:15;;;;;;;6.30;4.20;;;12.10;99.90;;;;;;5098983;28;20031;-67
2022/05/12 02:32:41;;;;;;;11.02;4.85;;;12.10;99.90;;;;;;5096111;28;20028;-67
2022/05/12 02:35:07;;;;;;;9.15;4.45;;;12.00;99.90;;;;;;5096091;28;20030;-67
2022/05/12 02:37:33;;;;;;;10.85;4.45;;;11.90;99.90;;;;;;5096237;28;20032;-68
2022/05/12 02:39:58;;;;;;;7.97;4.25;;;11.90;99.90;;;;;;5096312;28;20496;-67
2022/05/12 02:42:24;;;;;;;7.95;3.75;;;11.80;99.90;;;;;;5096012;28;20024;-67
2022/05/12 02:44:49;;;;;;;8.98;4.13;;;11.80;99.90;;;;;;5095911;28;20027;-68
2022/05/12 02:47:15;;;;;;;8.85;4.22;;;11.80;99.90;;;;;;5094756;28;20356;-67
2022/05/12 02:49:41;;;;;;;10.18;4.35;;;11.70;99.90;;;;;;5095854;28;20150;-67
2022/05/12 02:52:07;;;;;;;14.65;4.75;;;11.70;99.90;;;;;;5096027;28;20382;-67
2022/05/12 02:54:34;;;;;;;10.90;4.43;;;11.60;99.90;;;;;;5095954;28;20031;-67
2022/05/12 02:56:59;;;;;;;14.70;4.32;;;11.50;99.90;;;;;;5095867;28;20085;-67
2022/05/12 02:59:25;;;;;;;8.10;4.40;;;11.50;99.90;;;;;;5095861;28;20024;-68
2022/05/12 03:01:51;;;;;;;9.55;3.90;;;11.40;99.90;;;;;;5095654;28;20024;-68
2022/05/12 03:04:16;;;;;;;9.73;4.05;;;11.40;99.90;;;;;;5095566;28;20024;-68
2022/05/12 03:06:42;;;;;;;10.52;4.15;;;11.30;99.90;;;;;;5095758;28;20029;-68
2022/05/12 03:09:09;;;;;;;8.93;3.95;;;11.20;99.90;;;;;;5095725;28;20466;-68
2022/05/12 03:11:35;;;;;;;12.02;4.20;;;11.30;99.90;;;;;;5095400;28;20028;-68
2022/05/12 03:14:03;;;;;;;10.02;4.25;;;11.30;99.90;;;;;;5095371;28;20023;-68
2022/05/12 03:16:29;;;;;;;12.25;3.97;;;11.20;99.90;;;;;;5095587;28;20036;-68
2022/05/12 03:18:55;;;;;;;10.27;4.10;;;11.10;99.90;;;;;;5095069;28;20050;-68
2022/05/12 03:21:21;;;;;;;5.47;4.05;;;;;;;;;;5095212;28;20456;-68
2022/05/12 03:23:47;;;;;;;9.88;4.07;;;;;;;;;;5095458;28;20024;-67
2022/05/12 03:26:14;;;;;;;9.80;4.00;;;;;;;;;;5095402;28;20073;-68
2022/05/12 03:28:40;;;;;;;13.07;4.80;;;;;;;;;;5095129;28;20080;-68
2022/05/12 03:31:08;;;;;;;10.43;4.50;;;;;;;;;;5095052;28;20414;-68
2022/05/12 03:33:35;;;;;;;12.45;5.70;;;;;;;;;;5094955;28;20154;-68
2022/05/12 03:36:01;;;;;;;14.00;5.50;;;;;;;;;;5094922;28;20031;-67
2022/05/12 03:38:27;;;;;;;15.55;5.35;;;;;;;;;;5094825;28;20103;-68
2022/05/12 03:40:53;;;;;;;8.88;5.10;;;;;;;;;;5093885;28;20105;-67
2022/05/12 03:46:06;;;;;;;10.18;4.82;;;;;;;;;;5094547;28;20028;-67
2022/05/12 03:48:34;;;;;;;9.63;5.18;;;;;;;;;;5094917;28;20047;-68
2022/05/12 03:51:00;;;;;;;10.95;5.50;;;;;;;;;;5094675;28;20034;-67
2022/05/12 03:53:26;;;;;;;10.82;5.30;;;;;;;;;;5094634;28;20099;-68
2022/05/12 03:55:52;;;;;;;9.15;4.40;;;;;;;;;;5094602;28;20381;-68
2022/05/12 03:58:18;;;;;;;7.53;4.43;;;;;;;;;;5094497;28;20031;-67
2022/05/12 04:00:44;;;;;;;10.48;4.63;;;;;;;;;;5094408;28;20024;-68
2022/05/12 04:03:10;;;;;;;7.30;4.25;;;;;;;;;;5094415;28;20024;-68
2022/05/12 04:05:36;;;;;;;13.88;5.05;;;;;;;;;;5094309;28;20031;-68
2022/05/12 04:08:02;;;;;;;10.48;4.97;;;;;;;;;;5094483;28;20036;-67
2022/05/12 04:10:29;;;;;;;6.68;4.68;;;;;;;;;;5094342;28;20024;-68
2022/05/12 04:12:55;;;;;;;10.52;4.80;;;;;;;;;;5094432;28;20509;-68
2022/05/12 04:15:21;;;;;;;8.75;5.07;;;;;;;;;;5094225;28;20031;-67
2022/05/12 04:17:57;;;;;;;10.75;4.80;;;;;;;;;;5093968;28;20048;-68
2022/05/12 04:20:23;;;;;;;11.77;5.40;;;;;;;;;;5094001;28;20024;-68
2022/05/12 04:22:49;;;;;;;8.38;5.18;;;;;;;;;;5094326;28;20024;-68
2022/05/12 04:25:16;;;;;;;10.60;5.65;;;;;;;;;;5093984;28;20027;-68
2022/05/12 04:27:42;;;;;;;14.25;5.28;;;;;;;;;;5093926;28;20393;-68
2022/05/12 04:30:09;;;;;;;11.80;6.03;;;;;;;;;;5094000;28;20493;-68
2022/05/12 04:32:35;;;;;;;9.90;5.25;;;;;;;;;;5093891;28;20107;-68
2022/05/12 04:35:16;;;;;;;9.20;4.72;;;;;;;;;;5093894;28;20457;-68
2022/05/12 04:37:44;;;;;;;13.55;5.00;;;;;;;;;;5093958;28;20032;-68
2022/05/12 04:40:23;;;;;;;13.50;4.93;;;11.10;99.90;;;;;;5094040;28;20116;-68
2022/05/12 04:42:50;;;;;;;13.32;4.30;;;11.40;99.90;;;;;;5093829;28;20048;-68
2022/05/12 04:45:18;;;;;;;9.13;3.38;;;11.80;99.90;;;;;;5093776;28;20059;-68
2022/05/12 04:47:44;;;;;;;10.82;4.00;;;12.50;99.90;;;;;;5093570;28;20084;-68
2022/05/12 04:50:13;;;;;;;9.38;3.40;;;12.80;99.90;;;;;;5093846;28;20440;-68
2022/05/12 04:52:39;;;;;;;7.38;3.20;;;13.10;99.90;;;;;;5093342;28;20059;-68
2022/05/12 04:55:05;;;;;;;10.52;3.97;;;12.90;99.90;;;;;;5093487;28;20024;-68
2022/05/12 04:57:39;;;;;;;6.63;3.67;;;12.40;99.90;;;;;;5093355;28;20114;-68
2022/05/12 05:00:10;;;;;;;11.73;3.90;;;12.40;99.90;;;;;;5093386;28;20020;-68
2022/05/12 05:02:36;;;;;;;13.05;4.50;;;12.40;99.90;;;;;;5093353;28;20359;-68
2022/05/12 05:05:02;;;;;;;12.07;4.60;;;12.30;99.90;;;;;;5093381;28;20035;-68
2022/05/12 05:07:27;;;;;;;8.82;4.53;;;12.20;99.90;;;;;;5093258;28;20047;-68
2022/05/12 05:09:53;;;;;;;9.07;4.80;;;12.30;99.90;;;;;;5093509;28;20108;-68
2022/05/12 05:12:19;;;;;;;8.90;4.28;;;12.20;99.90;;;;;;5093506;28;20476;-68
2022/05/12 05:14:45;;;;;;;12.95;4.50;;;12.20;99.90;;;;;;5093153;28;20031;-68
2022/05/12 05:17:11;;;;;;;10.48;4.63;;;12.10;99.90;;;;;;5093066;28;20394;-69
2022/05/12 05:19:36;;;;;;;10.63;4.50;;;12.10;99.90;;;;;;5093447;28;20028;-68
2022/05/12 05:22:02;;;;;;;10.73;4.50;;;12.10;99.90;;;;;;5093213;28;20423;-68
2022/05/12 05:24:28;;;;;;;10.95;3.85;;;12.20;99.90;;;;;;5093230;28;20030;-68
2022/05/12 05:26:53;;;;;;;11.10;4.05;;;12.20;99.90;;;;;;5093389;28;20020;-69
2022/05/12 05:29:19;;;;;;;8.05;4.20;;;12.40;99.90;;;;;;5093153;28;20103;-69
2022/05/12 05:31:44;;;;;;;8.82;3.60;;;12.50;99.90;;;;;;5093369;28;20123;-68
2022/05/12 05:34:10;;;;;;;7.53;3.15;;;13.00;99.90;;;;;;5093115;28;20028;-69
2022/05/12 05:36:39;;;;;;;7.25;2.95;;;13.70;99.90;;;;;;5093112;28;20020;-68
2022/05/12 05:39:06;;;;;;;6.60;2.78;;;;;;;;;;5092928;28;20031;-68
2022/05/12 05:41:32;;;;;;;7.72;2.53;;;;;;;;;;5093158;28;20475;-68
2022/05/12 05:43:58;;;;;;;6.18;2.90;;;15.70;99.90;;;;;;5093250;28;20077;-69
2022/05/12 05:46:24;;;;;;;11.27;3.05;;;15.50;99.90;;;;;;5093184;28;20024;-68
2022/05/12 05:48:51;;;;;;;8.43;3.10;;;15.70;99.90;;;;;;5093042;28;20031;-68
2022/05/12 05:54:02;;;;;;;6.75;2.75;;;16.00;99.90;;;;;;5092741;28;20533;-68
2022/05/12 05:56:28;;;;;;;10.30;3.20;;;15.90;99.90;;;;;;5093098;28;20062;-68
2022/05/12 05:58:54;;;;;;;9.13;2.80;;;16.40;99.90;;;;;;5092645;28;20016;-68
2022/05/12 06:01:20;;;;;;;8.57;3.25;;;16.80;99.90;;;;;;5093009;28;20024;-68
2022/05/12 06:03:46;;;;;;;5.53;2.85;;;16.80;99.90;;;;;;5097594;28;20443;-69
2022/05/12 06:06:12;;;;;;;6.93;2.70;;;17.30;99.90;;;;;;5098543;28;20085;-68
2022/05/12 06:08:38;;;;;;;7.82;3.17;;;17.70;99.90;;;;;;5089693;28;20025;-68
2022/05/12 06:11:04;;;;;;;8.27;3.03;;;17.70;99.90;;;;;;5096310;28;20478;-68
2022/05/12 06:13:32;;;;;;;7.80;2.92;;;18.00;99.90;;;;;;5096727;28;20532;-68
2022/05/12 06:15:58;;;;;;;6.43;2.95;;;17.80;99.90;;;;;;5091321;28;20466;-69
2022/05/12 06:18:24;;;;;;;8.35;2.90;;;18.00;99.90;;;;;;5102696;28;20097;-68
2022/05/12 06:20:50;;;;;;;10.52;3.75;;;17.60;99.90;;;;;;5096170;28;20382;-69
2022/05/12 06:23:17;;;;;;;7.93;3.00;;;17.60;99.90;;;;;;5096069;28;20478;-69
2022/05/12 06:25:44;;;;;;;6.78;3.03;;;18.20;99.90;;;;;;5096443;28;20047;-68
2022/05/12 06:28:10;;;;;;;9.85;3.75;;;18.00;99.90;;;;;;5096314;28;20130;-69
2022/05/12 06:30:36;;;;;;;7.25;3.03;;;18.50;99.90;;;;;;5096053;28;20032;-69
2022/05/12 06:33:02;;;;;;;8.00;3.20;;;19.00;99.90;;;;;;5096095;28;20485;-69
2022/05/12 06:35:28;;;;;;;6.93;3.33;;;18.80;99.90;;;;;;5096332;28;20474;-69
2022/05/12 06:37:53;;;;;;;5.93;3.15;;;18.30;99.90;;;;;;5095924;28;20024;-69
2022/05/12 06:40:20;;;;;;;7.60;3.38;;;18.60;99.90;;;;;;5096058;28;20434;-69
2022/05/12 06:42:46;;;;;;;8.23;3.70;;;18.20;99.90;;;;;;5086461;28;20039;-69
2022/05/12 06:45:15;;;;;;;5.03;3.42;;;17.90;99.90;;;;;;5093134;28;20553;-69
2022/05/12 06:47:48;;;;;;;6.78;4.22;;;17.70;99.90;;;;;;5078064;28;20024;-69
2022/05/12 06:50:14;;;;;;;7.05;4.20;;;18.30;99.90;;;;;;5077867;28;20462;-68
2022/05/12 06:52:40;;;;;;;8.80;4.93;;;17.80;99.90;;;;;;5081529;28;20494;-68
2022/05/12 06:55:06;;;;;;;10.07;5.18;;;18.00;99.90;;;;;;5084778;28;20122;-68
2022/05/12 06:57:32;;;;;;;10.25;6.40;;;17.10;99.90;;;;;;5093383;28;20081;-69
2022/05/12 06:59:57;;;;;;;11.20;5.93;;;16.20;99.90;;;;;;5092097;28;20028;-68
2022/05/12 07:02:24;;;;;;;14.15;6.72;;;15.80;99.90;;;;;;5094516;28;20056;-69
2022/05/12 07:04:52;;;;;;;13.63;8.32;;;15.70;99.90;;;;;;5091913;28;20427;-68
2022/05/12 07:07:18;;;;;;;12.85;8.23;;;15.80;99.90;;;;;;5104420;28;20055;-69
2022/05/12 07:09:43;;;;;;;13.07;7.90;;;15.80;99.90;;;;;;5105553;28;20412;-68
2022/05/12 07:12:11;;;;;;;16.58;8.30;;;16.90;99.90;;;;;;5084701;28;20142;-68
2022/05/12 07:14:36;;;;;;;13.40;10.02;;;17.00;99.90;;;;;;5091510;28;20019;-68
2022/05/12 07:17:03;;;;;;;15.07;9.95;;;17.60;99.90;;;;;;5082929;28;20025;-68
2022/05/12 07:19:31;;;;;;;14.88;11.02;;;17.40;99.90;;;;;;5085320;28;20043;-68
2022/05/12 07:27:27;;;;;;;14.52;12.15;;;17.50;99.90;;;;;;5075508;28;20036;-68
2022/05/12 07:29:53;;;;;;;20.80;14.88;;;18.60;99.90;;;;;;5077555;28;20033;-68
2022/05/12 07:32:19;;;;;;;17.83;13.38;;;18.30;99.90;;;;;;5086799;28;20036;-67
2022/05/12 07:34:44;;;;;;;19.58;14.00;;;18.20;99.90;;;;;;5079821;28;20030;-68
2022/05/12 07:37:10;;;;;;;21.05;15.73;;;18.00;99.90;;;;;;5092219;28;20103;-68
2022/05/12 07:39:36;;;;;;;18.55;16.65;;;17.90;99.90;;;;;;5092385;28;20047;-68
2022/05/12 07:42:04;;;;;;;21.52;16.17;;;17.90;99.90;;;;;;5086919;28;20020;-69
2022/05/12 07:44:34;;;;;;;17.50;15.68;;;17.40;99.90;;;;;;5088242;28;20028;-68
2022/05/12 07:47:02;;;;;;;20.23;15.18;;;17.40;99.90;;;;;;5083637;28;20526;-68
2022/05/12 07:49:31;;;;;;;16.08;13.73;;;17.80;99.90;;;;;;5092789;28;20474;-69
2022/05/12 07:51:57;;;;;;;17.95;15.57;;;17.50;99.90;;;;;;5092424;28;20028;-68
2022/05/12 07:54:23;;;;;;;22.05;15.77;;;16.90;99.90;;;;;;5092495;28;20080;-68
2022/05/12 07:56:49;;;;;;;22.52;15.23;;;17.20;99.90;;;;;;5088844;28;20071;-69
2022/05/12 07:59:14;;;;;;;16.85;15.02;;;18.00;99.90;;;;;;5093443;28;20516;-68
2022/05/12 08:01:40;;;;;;;16.70;14.82;;;18.90;99.90;;;;;;5092635;28;20529;-68
2022/05/12 08:04:05;;;;;;;16.23;13.73;;;18.20;99.90;;;;;;5084378;28;20017;-68
2022/05/12 08:06:32;;;;;;;17.20;13.48;;;18.00;99.90;;;;;;5089560;28;20121;-68
2022/05/12 08:08:57;;;;;;;17.60;13.88;;;18.40;99.90;;;;;;5093172;28;20106;-68
2022/05/12 08:11:24;;;;;;;14.90;13.30;;;18.90;99.90;;;;;;5075589;28;20444;-69
2022/05/12 08:13:50;;;;;;;15.73;13.68;;;19.20;99.90;;;;;;5102347;28;20033;-69
2022/05/12 08:16:18;;;;;;;17.27;13.60;;;19.20;99.90;;;;;;5084565;28;20072;-68
2022/05/12 08:18:45;;;;;;;16.95;12.55;;;19.00;99.90;;;;;;5092360;28;20410;-68
2022/05/12 08:21:12;;;;;;;18.55;13.82;;;19.10;99.90;;;;;;5092356;28;20028;-68
2022/05/12 08:23:37;;;;;;;14.68;13.02;;;18.60;99.90;;;;;;5089623;28;20055;-68
2022/05/12 08:26:03;;;;;;;19.30;13.48;;;17.60;99.90;;;;;;5086257;28;20055;-68
2022/05/12 08:28:29;;;;;;;16.95;12.15;;;17.20;99.90;;;;;;5092011;28;20091;-67
2022/05/12 08:30:55;;;;;;;14.43;10.60;;;17.10;99.90;;;;;;5075639;28;20111;-68
2022/05/12 08:33:21;;;;;;;11.27;10.02;;;17.50;99.90;;;;;;5084484;28;20039;-68
2022/05/12 08:35:49;;;;;;;10.57;8.13;;;18.00;99.90;;;;;;5084982;28;20032;-68
2022/05/12 08:38:17;;;;;;;14.55;9.20;;;19.20;99.90;;;;;;5085500;28;20343;-68
2022/05/12 08:41:09;;;;;;;18.58;10.25;;;19.20;99.90;;;;;;5091667;28;20477;-68
2022/05/12 08:46:37;;;;;;;16.95;12.10;;;17.20;99.90;;;;;;5077966;28;20113;-68
2022/05/12 08:49:16;;;;;;;15.13;12.65;;;17.00;99.90;;;;;;5048724;28;20395;-68
2022/05/12 08:51:44;;;;;;;14.90;11.35;;;18.30;99.90;;;;;;5062561;28;20021;-68
2022/05/12 08:54:14;;;;;;;14.48;10.57;;;19.00;99.90;;;;;;5064561;28;20023;-68
2022/05/12 08:56:40;;;;;;;13.98;11.27;;;18.50;99.90;;;;;;5057100;28;20028;-67
2022/05/12 08:59:06;;;;;;;10.95;9.63;;;18.60;99.90;;;;;;5057096;28;20226;-68
2022/05/12 09:01:57;;;;;;;12.00;9.23;;;19.40;99.90;;;;;;5074501;28;20028;-67
2022/05/12 09:04:50;;;;;;;13.38;9.27;;;19.70;99.90;;;;;;5066681;28;20025;-68
2022/05/12 09:07:28;;;;;;;14.27;8.40;;;19.70;99.90;;;;;;5057675;28;20029;-68
2022/05/12 09:10:29;;;;;;;13.73;9.13;;;20.20;99.90;;;;;;5069000;28;20039;-67
2022/05/12 09:13:07;;;;;;;12.23;8.45;;;21.10;97.10;;;;;;5058292;28;20512;-68
2022/05/12 09:15:40;;;;;;;13.07;8.13;;;21.10;97.60;;;;;;5056669;28;20067;-68
2022/05/12 09:18:15;;;;;;;10.57;7.00;;;20.40;98.70;;;;;;5068197;28;20487;-69
2022/05/12 09:20:41;;;;;;;14.20;6.90;;;20.00;99.50;;;;;;5076152;28;20282;-69
2022/05/12 09:23:07;;;;;;;10.43;6.25;;;20.50;97.20;;;;;;5048664;28;20034;-68
2022/05/12 09:25:36;;;;;;;7.95;6.10;;;21.20;96.00;;;;;;5060294;28;20040;-68
2022/05/12 09:28:33;;;;;;;7.78;5.70;;;19.80;97.80;;;;;;5055804;28;20025;-68
2022/05/12 09:31:15;;;;;;;8.82;5.15;;;19.30;98.90;;;;;;5067407;28;20021;-69
2022/05/12 09:33:42;;;;;;;7.72;4.82;;;20.30;98.10;;;;;;5068549;28;20056;-68
2022/05/12 09:36:30;;;;;;;7.68;4.72;;;21.20;96.80;;;;;;5052726;28;20498;-68
2022/05/12 09:38:57;;;;;;;7.72;4.45;;;20.60;95.00;;;;;;5064620;28;20036;-68
2022/05/12 09:41:38;;;;;;;8.10;4.55;;;21.00;95.60;;;;;;5067859;28;20032;-68
2022/05/12 09:44:23;;;;;;;6.78;4.32;;;20.20;97.00;;;;;;5068169;28;20116;-68
2022/05/12 09:47:13;;;;;;;7.68;4.85;;;20.40;99.20;;;;;;5065789;28;20025;-68
2022/05/12 09:49:41;;;;;;;9.80;4.50;;;21.20;93.30;;;;;;5065913;28;20035;-69
2022/05/12 09:55:20;;;;;;;9.65;4.93;;;21.40;93.50;;;;;;5069387;28;20389;-68
2022/05/12 09:58:25;;;;;;;8.35;5.05;;;21.80;90.80;;;;;;5070157;28;20044;-68
2022/05/12 10:09:31;;;;;;;7.97;4.93;;;20.00;94.70;;;;;;5090049;28;20035;-67
2022/05/12 10:12:06;;;;;;;9.38;5.85;;;20.80;92.40;;;;;;5106153;28;20039;-68
2022/05/12 10:14:55;;;;;;;9.68;5.53;;;21.00;92.70;;;;;;5090582;28;20382;-68
2022/05/12 10:17:43;;;;;;;10.57;4.95;;;20.60;91.90;;;;;;5103975;28;20042;-67
2022/05/12 10:20:14;;;;;;;11.25;5.65;;;21.10;90.90;;;;;;5109104;28;20024;-67
2022/05/12 10:23:19;;;;;;;8.77;6.40;;;21.10;92.60;;;;;;5109928;28;20050;-67
2022/05/12 10:26:05;;;;;;;8.75;6.55;;;20.80;92.20;;;;;;5098774;28;20557;-68
2022/05/12 10:28:53;;;;;;;6.75;5.55;;;20.90;92.40;;;;;;5090221;28;20037;-67
2022/05/12 10:31:32;;;;;;;11.90;6.63;;;20.40;92.60;;;;;;5108399;28;20477;-68
2022/05/12 10:34:22;;;;;;;13.98;5.78;;;19.80;92.90;;;;;;5108959;28;20028;-68
2022/05/12 10:37:06;;;;;;;13.18;5.97;;;20.10;91.60;;;;;;5107325;28;20397;-68
2022/05/12 10:39:53;;;;;;;9.32;5.90;;;20.00;92.20;;;;;;5090794;28;20024;-68
2022/05/12 10:42:46;;;;;;;8.30;6.38;;;19.40;95.30;;;;;;5096701;28;20031;-67
2022/05/12 10:45:29;;;;;;;7.67;6.60;;;19.30;95.50;;;;;;5088589;28;20078;-67
2022/05/12 10:48:21;;;;;;;10.20;6.97;;;19.10;98.00;;;;;;5097725;28;20032;-67
2022/05/12 10:50:57;;;;;;;9.82;6.35;;;18.50;97.70;;;;;;5106274;28;20028;-67
2022/05/12 10:53:32;;;;;;;12.68;6.35;;;18.60;98.70;;;;;;5099477;28;20486;-67
2022/05/12 10:56:24;;;;;;;10.05;6.43;;;18.60;98.30;;;;;;5103715;28;20028;-68
2022/05/12 10:59:15;;;;;;;7.00;6.05;;;19.60;97.60;;;;;;5104359;28;20536;-67
2022/05/12 11:01:49;;;;;;;8.48;6.03;;;20.30;94.20;;;;;;5097738;28;20490;-67
2022/05/12 11:04:26;;;;;;;9.20;5.90;;;20.30;93.20;;;;;;5107905;28;20020;-67
2022/05/12 11:06:57;;;;;;;7.88;6.95;;;20.10;95.80;;;;;;5087320;28;20024;-67
2022/05/12 11:09:34;;;;;;;9.48;6.10;;;19.70;97.30;;;;;;5089674;28;20031;-67
2022/05/12 11:12:23;;;;;;;6.30;5.70;;;19.90;96.80;;;;;;5101732;28;20131;-67
2022/05/12 11:15:10;;;;;;;7.03;5.72;;;19.90;95.40;;;;;;5082226;28;20119;-67
2022/05/12 11:17:43;;;;;;;9.18;5.82;;;19.70;95.30;;;;;;5076366;28;20120;-67
2022/05/12 11:20:31;;;;;;;9.15;5.85;;;19.70;95.80;;;;;;5092334;28;20035;-67
2022/05/12 11:23:15;;;;;;;13.55;5.88;;;19.70;96.00;;;;;;5080487;28;20475;-68
2022/05/12 11:26:11;;;;;;;12.98;7.30;;;20.10;96.90;;;;;;5075627;28;20043;-68
2022/05/12 11:31:43;;;;;;;8.77;6.03;;;19.80;95.10;;;;;;5078095;28;20044;-68
2022/05/12 11:34:15;;;;;;;9.02;6.60;;;20.10;95.20;;;;;;5094316;28;20941;-69
2022/05/12 11:36:43;;;;;;;9.13;6.53;;;19.70;94.00;;;;;;5090106;28;20028;-69
2022/05/12 11:39:50;;;;;;;10.77;6.93;;;19.50;95.10;;;;;;5084419;28;20379;-68
2022/05/12 11:42:20;;;;;;;10.73;6.40;;;19.20;95.10;;;;;;5078992;28;20116;-68
2022/05/12 11:44:57;;;;;;;9.85;6.68;;;19.00;95.70;;;;;;5084523;28;20036;-68
2022/05/12 11:47:51;;;;;;;10.95;7.22;;;18.90;95.60;;;;;;5086095;28;20021;-68
2022/05/12 11:50:57;;;;;;;10.35;5.75;;;18.80;95.70;;;;;;5085713;28;20077;-68
2022/05/12 11:53:27;;;;;;;8.88;6.03;;;18.80;94.70;;;;;;5084256;28;20032;-68
2022/05/12 11:56:01;;;;;;;8.32;6.05;;;18.90;94.90;;;;;;5081655;28;20473;-68
2022/05/12 11:58:45;;;;;;;8.35;5.57;;;18.90;94.90;;;;;;5078180;28;20024;-68
2022/05/12 12:01:32;;;;;;;9.55;6.13;;;19.10;94.90;;;;;;5075173;28;20502;-68
2022/05/12 12:04:02;;;;;;;10.00;6.05;;;19.40;96.00;;;;;;5092358;28;20135;-68
2022/05/12 12:06:50;;;;;;;7.93;5.88;;;20.00;95.00;;;;;;5093037;28;20481;-67
2022/05/12 12:09:39;;;;;;;8.05;6.15;;;20.40;94.30;;;;;;5080540;28;20063;-67
2022/05/12 12:12:08;;;;;;;9.57;7.07;;;20.70;92.90;;;;;;5081340;28;20024;-68
2022/05/12 12:14:55;;;;;;;11.98;7.28;;;20.60;92.60;;;;;;5083656;28;20532;-68
2022/05/12 12:17:30;;;;;;;10.50;7.15;;;20.20;92.90;;;;;;5085974;28;20040;-68
2022/05/12 12:20:03;;;;;;;9.90;6.22;;;20.00;93.80;;;;;;5082307;28;20051;-68
2022/05/12 12:22:43;;;;;;;11.35;6.90;;;20.40;94.20;;;;;;5077421;28;20426;-68
2022/05/12 12:39:07;;;;;;;10.20;7.25;;;20.90;90.80;;;;;;5092644;27;20376;-68
2022/05/12 12:41:38;;;;;;;12.15;7.65;;;20.80;90.50;;;;;;5087865;28;20048;-68
2022/05/12 12:44:09;;;;;;;15.73;7.97;;;21.10;91.90;;;;;;5087008;28;20032;-67
2022/05/12 12:46:47;;;;;;;11.95;8.30;;;21.20;92.20;;;;;;5090414;28;20497;-68
2022/05/12 12:49:43;;;;;;;10.18;7.80;;;20.90;92.40;;;;;;5086625;28;20111;-68
2022/05/12 12:52:13;;;;;;;12.77;7.28;;;21.00;92.10;;;;;;5090152;28;20092;-68
2022/05/12 12:57:28;;;;;;;11.77;8.77;;;21.00;90.90;;;;;;5088310;28;20467;-68
2022/05/12 12:59:58;;;;;;;12.15;8.23;;;20.90;88.60;;;;;;5087896;28;20028;-68
2022/05/12 13:02:30;;;;;;;11.10;8.60;;;20.60;90.70;;;;;;5087987;28;20498;-68
2022/05/12 13:04:58;;;;;;;12.57;8.00;;;20.60;91.00;;;;;;5083125;28;20025;-68
2022/05/12 13:07:26;;;;;;;13.68;8.77;;;20.80;88.40;;;;;;5067228;28;20052;-68
2022/05/12 13:09:57;;;;;;;13.02;7.88;;;21.20;88.70;;;;;;5082460;28;20491;-72
2022/05/12 13:12:26;;;;;;;11.25;7.80;;;21.40;88.10;;;;;;5073580;28;20037;-68
2022/05/12 13:14:53;;;;;;;11.02;7.70;;;20.90;89.50;;;;;;5072839;28;20040;-68
2022/05/12 13:17:24;;;;;;;14.27;7.50;;;20.60;90.30;;;;;;5069474;28;20120;-67
2022/05/12 13:19:50;;;;;;;13.00;8.02;;;20.60;90.40;;;;;;5088158;28;20040;-68
2022/05/12 13:22:26;;;;;;;8.77;7.15;;;20.30;88.80;;;;;;5085606;28;20021;-68
2022/05/12 13:24:52;;;;;;;9.85;6.85;;;20.30;90.30;;;;;;5068073;28;20048;-68
2022/05/12 13:27:22;;;;;;;9.60;6.85;;;20.40;90.30;;;;;;5083706;28;20035;-68
2022/05/12 13:29:48;;;;;;;14.13;6.63;;;20.60;90.80;;;;;;5086027;28;20560;-68
2022/05/12 13:32:36;;;;;;;10.65;6.88;;;20.50;90.20;;;;;;5088562;28;20157;-68
2022/05/12 13:35:08;;;;;;;8.52;5.25;;;20.30;88.60;;;;;;5072009;28;20045;-67
2022/05/12 13:37:34;;;;;;;11.85;6.13;;;20.50;88.60;;;;;;5088458;28;20090;-68
2022/05/12 13:40:01;;;;;;;8.02;5.25;;;20.80;89.70;;;;;;5066890;28;20471;-68
2022/05/12 13:42:35;;;;;;;10.18;5.95;;;20.80;87.10;;;;;;5070327;28;20021;-68
2022/05/12 13:45:08;;;;;;;8.32;5.40;;;21.00;86.70;;;;;;5086185;28;20474;-68
2022/05/12 13:47:42;;;;;;;8.93;6.05;;;21.10;86.20;;;;;;5080550;28;20024;-68
2022/05/12 13:50:09;;;;;;;7.63;5.55;;;21.00;83.60;;;;;;5065802;28;20064;-68
2022/05/12 13:52:49;;;;;;;6.45;5.45;;;21.10;88.60;;;;;;5072679;28;20139;-68
2022/05/12 13:55:34;;;;;;;8.45;5.75;;;21.10;86.80;;;;;;5065150;28;20085;-68